createdAt,value
2022-08-18T00:01:11.328Z,19.06
2022-08-18T00:06:16.030Z,18.98
2022-08-18T00:11:17.705Z,18.94
2022-08-18T00:16:19.342Z,18.98
2022-08-18T00:21:21.015Z,18.99
2022-08-18T00:26:22.625Z,18.98
2022-08-18T00:31:24.679Z,19.00
2022-08-18T00:36:27.165Z,19.00
2022-08-18T00:41:30.056Z,18.93
2022-08-18T00:46:34.086Z,18.91
2022-08-18T00:51:37.091Z,18.84
2022-08-18T00:56:45.346Z,18.88
2022-08-18T01:01:50.054Z,18.89
2022-08-18T01:07:11.393Z,18.87
2022-08-18T01:12:45.009Z,18.78
2022-08-18T01:17:53.861Z,18.80
2022-08-18T01:23:13.066Z,18.81
2022-08-18T01:28:18.459Z,18.77
2022-08-18T01:33:20.174Z,18.69
2022-08-18T01:38:22.867Z,18.73
2022-08-18T01:43:25.053Z,18.63
2022-08-18T01:48:28.447Z,18.66
2022-08-18T01:53:30.234Z,18.61
2022-08-18T01:58:36.340Z,18.62
2022-08-18T02:03:42.995Z,18.63
2022-08-18T02:08:45.922Z,18.62
2022-08-18T02:13:55.051Z,18.63
2022-08-18T02:18:56.928Z,18.58
2022-08-18T02:23:58.719Z,18.39
2022-08-18T02:29:07.670Z,18.30
2022-08-18T02:34:36.467Z,18.21
2022-08-18T02:39:38.325Z,18.17
2022-08-18T02:44:40.332Z,18.19
2022-08-18T02:49:42.046Z,18.15
2022-08-18T02:54:43.870Z,18.19
2022-08-18T02:59:47.479Z,18.22
2022-08-18T03:04:51.406Z,18.16
2022-08-18T03:09:53.085Z,18.24
2022-08-18T03:14:55.126Z,18.30
2022-08-18T03:19:57.766Z,18.31
2022-08-18T03:24:59.547Z,18.25
2022-08-18T03:30:02.761Z,18.19
2022-08-18T03:35:04.825Z,18.25
2022-08-18T03:40:07.407Z,18.25
2022-08-18T03:45:12.658Z,18.30
2022-08-18T03:50:19.879Z,18.37
2022-08-18T03:55:21.736Z,18.31
2022-08-18T04:00:23.751Z,18.38
2022-08-18T04:05:26.860Z,18.38
2022-08-18T04:10:28.629Z,18.38
2022-08-18T04:15:30.310Z,18.42
2022-08-18T04:20:35.380Z,18.30
2022-08-18T04:25:37.086Z,18.27
2022-08-18T04:30:38.643Z,18.21
2022-08-18T04:35:40.365Z,18.24
2022-08-18T04:40:42.546Z,18.31
2022-08-18T04:45:45.970Z,18.35
2022-08-18T04:50:48.604Z,18.40
2022-08-18T04:55:52.097Z,18.43
2022-08-18T05:01:01.051Z,18.46
2022-08-18T05:06:04.840Z,18.47
2022-08-18T05:11:06.943Z,18.45
2022-08-18T05:16:18.039Z,18.45
2022-08-18T05:21:22.477Z,18.48
2022-08-18T05:26:26.817Z,18.55
2022-08-18T05:31:29.635Z,18.57
2022-08-18T05:36:52.074Z,18.58
2022-08-18T05:42:12.576Z,18.66
2022-08-18T05:47:16.649Z,18.71
2022-08-18T05:52:26.282Z,18.78
2022-08-18T05:57:33.567Z,18.82
2022-08-18T06:02:38.655Z,18.88
2022-08-18T06:07:51.240Z,19.07
2022-08-18T06:12:57.559Z,19.11
2022-08-18T06:18:02.274Z,19.14
2022-08-18T06:23:29.381Z,19.20
2022-08-18T06:29:00.922Z,19.27
2022-08-18T06:34:23.584Z,19.42
2022-08-18T06:39:39.371Z,19.54
2022-08-18T06:44:46.915Z,19.51
2022-08-18T06:50:18.760Z,19.55
2022-08-18T06:55:45.940Z,19.55
2022-08-18T07:00:50.806Z,19.58
2022-08-18T07:06:03.944Z,19.70
2022-08-18T07:11:17.757Z,19.86
2022-08-18T07:16:40.278Z,19.96
2022-08-18T07:21:44.934Z,19.75
2022-08-18T07:27:07.405Z,19.93
2022-08-18T07:32:21.813Z,19.98
2022-08-18T07:37:50.423Z,20.12
2022-08-18T07:43:23.985Z,20.30
2022-08-18T07:48:39.928Z,20.43
2022-08-18T07:54:05.315Z,20.61
2022-08-18T07:59:39.113Z,20.62
2022-08-18T08:04:56.882Z,20.65
2022-08-18T08:10:23.917Z,20.69
2022-08-18T08:15:49.577Z,20.79
2022-08-18T08:20:58.187Z,20.79
2022-08-18T08:26:12.021Z,20.76
2022-08-18T08:31:38.013Z,20.78
2022-08-18T08:36:42.062Z,20.74
2022-08-18T08:42:30.919Z,20.73
2022-08-18T08:48:06.646Z,20.78
2022-08-18T08:53:25.756Z,20.91
2022-08-18T08:58:40.545Z,21.20
2022-08-18T09:03:49.137Z,21.20
2022-08-18T09:09:07.902Z,21.14
2022-08-18T09:14:46.571Z,21.56
2022-08-18T09:20:09.363Z,21.69
2022-08-18T09:25:32.887Z,22.17
2022-08-18T09:30:45.176Z,22.37
2022-08-18T10:48:40.322Z,22.36
2022-08-18T10:53:58.551Z,22.25
2022-08-18T11:12:57.856Z,22.04
2022-08-18T11:31:10.845Z,22.29
2022-08-18T11:36:16.299Z,22.60
2022-08-18T11:41:24.328Z,23.34
2022-08-18T11:47:03.547Z,23.81
2022-08-18T11:52:28.978Z,23.90
2022-08-18T11:58:33.290Z,24.23
2022-08-18T12:03:44.598Z,24.45
2022-08-18T12:08:58.633Z,24.39
2022-08-18T12:14:30.661Z,24.38
2022-08-18T12:19:36.119Z,24.70
2022-08-18T12:24:40.388Z,24.49
2022-08-18T12:29:43.568Z,24.06
2022-08-18T12:34:46.934Z,23.97
